An Run Da 2 — BHNX — position and weather

sailwx.info

Track history (hours):
 
Tides and Currents Weather Stations Pressure Air Temp Water Temp Dewpoint Dewpoint Depression Visibility Wind Speed Wind Dir Waves Ship Positions

An Run Da 2

Last reported at 2017-Nov-16 13:51 UTC. Time now 2017-Nov-22 02:00 UTC.
Position N 32°02' E 120°31'.

Length 147 m; draft 8.2 m.

Type: Cargo ship. MMSI: 413360230.

Date/timePositionNaut miles runAvg speedWind from/ knotsBaromVisibWave heightAir tempDewpointWater temp
2017-Nov-16 13:51N 32°02' E 120°31'34 6.7
2017-Nov-16 08:45N 31°45' E 121°06'2 6.2
2017-Nov-16 08:29N 31°44' E 121°07'5 8.0
2017-Nov-16 07:51N 31°40' E 121°12'3 8.4
2017-Nov-16 07:30N 31°38' E 121°15'4 8.8
2017-Nov-16 07:00N 31°35' E 121°18'5 9.2
2017-Nov-16 06:30N 31°32' E 121°22'4 8.0
2017-Nov-16 06:00N 31°30' E 121°26'5 9.6
2017-Nov-16 05:30N 31°26' E 121°30'4 7.5
2017-Nov-16 05:00N 31°24' E 121°33'3 5.3
2017-Nov-16 04:31N 31°23' E 121°36'0 0.2
2017-Nov-16 04:00N 31°23' E 121°36'0 0.0
2017-Nov-16 03:26N 31°23' E 121°36'0 0.1
2017-Nov-16 02:59N 31°23' E 121°36'0 0.0
2017-Nov-16 02:16N 31°23' E 121°36'0 0.0
2017-Nov-16 01:59N 31°23' E 121°36'3 5.6
2017-Nov-16 01:30N 31°22' E 121°39'5 9.0
2017-Nov-16 01:00N 31°19' E 121°43'611.0
2017-Nov-16 00:30N 31°17' E 121°49'510.3
2017-Nov-16 00:00N 31°16' E 121°55'610.9
2017-Nov-15 23:28N 31°15' E 122°02'386 7.7
2017-Nov-13 21:33N 37°41' E 122°03'  
2017-Nov-07 09:57N 38°13' E 120°03'  
Track history (hours):
 
Tides and Currents Weather Stations Pressure Air Temp Water Temp Dewpoint Dewpoint Depression Visibility Wind Speed Wind Dir Waves Ship Positions

An Run Da 2

Last reported at 2017-Nov-16 13:51 UTC. Time now 2017-Nov-22 02:00 UTC.
Position N 32°02' E 120°31'.

Length 147 m; draft 8.2 m.

Type: Cargo ship. MMSI: 413360230.

Date/timePositionNaut miles runAvg speedWind from/ knotsBaromVisibWave heightAir tempDewpointWater temp
2017-Nov-16 13:51N 32°02' E 120°31'34 6.7
2017-Nov-16 08:45N 31°45' E 121°06'2 6.2
2017-Nov-16 08:29N 31°44' E 121°07'5 8.0
2017-Nov-16 07:51N 31°40' E 121°12'3 8.4
2017-Nov-16 07:30N 31°38' E 121°15'4 8.8
2017-Nov-16 07:00N 31°35' E 121°18'5 9.2
2017-Nov-16 06:30N 31°32' E 121°22'4 8.0
2017-Nov-16 06:00N 31°30' E 121°26'5 9.6
2017-Nov-16 05:30N 31°26' E 121°30'4 7.5
2017-Nov-16 05:00N 31°24' E 121°33'3 5.3
2017-Nov-16 04:31N 31°23' E 121°36'0 0.2
2017-Nov-16 04:00N 31°23' E 121°36'0 0.0
2017-Nov-16 03:26N 31°23' E 121°36'0 0.1
2017-Nov-16 02:59N 31°23' E 121°36'0 0.0
2017-Nov-16 02:16N 31°23' E 121°36'0 0.0
2017-Nov-16 01:59N 31°23' E 121°36'3 5.6
2017-Nov-16 01:30N 31°22' E 121°39'5 9.0
2017-Nov-16 01:00N 31°19' E 121°43'611.0
2017-Nov-16 00:30N 31°17' E 121°49'510.3
2017-Nov-16 00:00N 31°16' E 121°55'610.9
2017-Nov-15 23:28N 31°15' E 122°02'386 7.7
2017-Nov-13 21:33N 37°41' E 122°03'  
2017-Nov-07 09:57N 38°13' E 120°03'  

Dump ship's entire track history